Time;durP1;ratioP1;P1;durP2;ratioP2;P2;SDS_P1;SDS_P2;PMS_P1;PMS_P2;Temp;Humidity;BMP_temperature;BMP_pressure;BME280_temperature;BME280_humidity;BME280_pressure;Samples;Min_cycle;Max_cycle;Signal;HPM_P1;HPM_P2
2023/06/30 00:01:54;;;;;;;;;;;18.70;79.00;;;;;;4955640;28;19910;-80
2023/06/30 00:04:22;;;;;;;;;;;18.80;78.80;;;;;;4968142;28;19925;-81
2023/06/30 00:06:49;;;;;;;;;;;18.70;78.80;;;;;;4936050;29;19911;-80
2023/06/30 00:09:21;;;;;;;;;;;18.80;78.40;;;;;;4951014;28;19921;-81
2023/06/30 00:11:48;;;;;;;;;;;18.60;78.90;;;;;;4970963;28;20013;-80
2023/06/30 00:14:14;;;;;;;;;;;18.60;78.90;;;;;;4951783;28;19915;-80
2023/06/30 00:16:39;;;;;;;;;;;18.60;79.00;;;;;;4945422;29;19921;-80
2023/06/30 00:19:05;;;;;;;;;;;18.60;79.30;;;;;;4936078;29;19922;-80
2023/06/30 00:21:30;;;;;;;;;;;18.60;79.60;;;;;;4934910;29;19918;-80
2023/06/30 00:24:01;;;;;;;;;;;18.70;79.30;;;;;;4944767;28;20358;-79
2023/06/30 00:26:30;;;;;;;;;;;18.80;78.50;;;;;;4951413;29;20081;-79
2023/06/30 00:28:56;;;;;;;;;;;18.70;79.00;;;;;;4961929;28;19924;-79
2023/06/30 00:31:21;;;;;;;;;;;18.70;79.30;;;;;;4952674;28;19910;-78
2023/06/30 00:33:47;;;;;;;;;;;18.80;79.00;;;;;;4945155;29;19911;-79
2023/06/30 00:36:12;;;;;;;;;;;18.60;79.30;;;;;;4938731;29;19918;-79
2023/06/30 00:38:38;;;;;;;;;;;18.60;78.80;;;;;;4942110;29;20059;-79
2023/06/30 00:41:03;;;;;;;;;;;18.60;78.80;;;;;;4952919;29;19914;-81
2023/06/30 00:43:29;;;;;;;;;;;18.70;78.70;;;;;;4952727;28;20286;-81
2023/06/30 00:45:55;;;;;;;;;;;18.50;78.50;;;;;;4949753;28;19919;-80
2023/06/30 00:48:20;;;;;;;;;;;18.50;78.30;;;;;;4954786;28;19910;-80
2023/06/30 00:50:46;;;;;;;;;;;18.50;77.80;;;;;;4969295;28;19953;-81
2023/06/30 00:53:12;;;;;;;;;;;18.50;77.70;;;;;;4955549;28;19997;-81
2023/06/30 00:55:39;;;;;;;;;;;18.40;78.20;;;;;;4968353;28;19921;-80
2023/06/30 00:58:05;;;;;;;;;;;18.30;77.90;;;;;;4945315;29;19915;-79
2023/06/30 01:00:30;;;;;;;;;;;18.30;76.40;;;;;;4937234;28;19915;-80
2023/06/30 01:03:04;;;;;;;;;;;18.30;76.00;;;;;;4963489;28;19922;-79
2023/06/30 01:05:46;;;;;;;;;;;18.30;75.50;;;;;;4945535;28;19910;-80
2023/06/30 01:08:32;;;;;;;;;;;18.00;77.80;;;;;;4953623;28;19911;-80
2023/06/30 01:10:57;;;;;;;;;;;17.90;78.60;;;;;;4974258;28;19915;-80
2023/06/30 01:13:23;;;;;;;;;;;17.80;77.90;;;;;;4952030;29;19929;-79
2023/06/30 01:15:50;;;;;;;;;;;18.00;77.20;;;;;;4946401;29;19911;-80
2023/06/30 01:18:19;;;;;;;;;;;17.70;77.90;;;;;;4939781;28;20350;-78
2023/06/30 01:20:46;;;;;;;;;;;17.60;78.20;;;;;;4951561;29;20005;-79
2023/06/30 01:23:13;;;;;;;;;;;17.40;80.50;;;;;;4953449;29;19985;-79
2023/06/30 01:25:39;;;;;;;;;;;17.40;79.80;;;;;;4958936;28;20393;-80
2023/06/30 01:28:05;;;;;;;;;;;17.50;80.60;;;;;;4968067;28;19911;-80
2023/06/30 01:30:31;;;;;;;;;;;17.60;80.20;;;;;;4953450;28;20009;-80
2023/06/30 01:32:58;;;;;;;;;;;17.70;81.10;;;;;;4952006;28;19945;-80
2023/06/30 01:35:24;;;;;;;;;;;17.60;80.70;;;;;;4943361;28;19919;-79
2023/06/30 01:37:49;;;;;;;;;;;17.70;79.80;;;;;;4940846;28;19915;-80
2023/06/30 01:40:15;;;;;;;;;;;17.60;81.00;;;;;;4949877;28;20021;-79
2023/06/30 01:42:40;;;;;;;;;;;17.60;81.10;;;;;;4950317;28;19929;-79
2023/06/30 01:45:07;;;;;;;;;;;17.70;80.70;;;;;;4952239;28;20403;-78
2023/06/30 01:47:33;;;;;;;;;;;17.80;79.70;;;;;;4949455;28;20054;-79
2023/06/30 01:49:58;;;;;;;;;;;17.60;80.60;;;;;;4950077;28;20378;-78
2023/06/30 01:52:24;;;;;;;;;;;17.60;81.40;;;;;;4941503;28;19915;-79
2023/06/30 01:54:49;;;;;;;;;;;17.60;82.00;;;;;;4966336;28;20356;-80
2023/06/30 01:57:15;;;;;;;;;;;17.70;81.90;;;;;;4952232;29;19925;-79
2023/06/30 01:59:40;;;;;;;;;;;17.70;81.90;;;;;;4952777;28;19914;-79
2023/06/30 02:02:06;;;;;;;;;;;17.70;82.30;;;;;;4950281;29;20361;-80
2023/06/30 02:04:31;;;;;;;;;;;17.60;81.80;;;;;;4966000;28;20208;-79
2023/06/30 02:06:57;;;;;;;;;;;17.60;82.50;;;;;;4952794;29;19934;-78
2023/06/30 02:09:22;;;;;;;;;;;17.60;81.90;;;;;;4951842;29;20429;-79
2023/06/30 02:11:48;;;;;;;;;;;17.60;82.00;;;;;;4942129;29;20235;-81
2023/06/30 02:14:13;;;;;;;;;;;17.60;82.40;;;;;;4949659;29;19918;-80
2023/06/30 02:16:39;;;;;;;;;;;17.60;82.30;;;;;;4965507;28;19960;-80
2023/06/30 02:19:04;;;;;;;;;;;17.60;82.90;;;;;;4969091;28;19914;-81
2023/06/30 02:21:30;;;;;;;;;;;17.70;83.40;;;;;;4940866;28;19976;-80
2023/06/30 02:23:55;;;;;;;;;;;17.70;82.40;;;;;;4949384;28;19930;-80
2023/06/30 02:26:21;;;;;;;;;;;17.70;82.80;;;;;;4940275;28;19938;-79
2023/06/30 02:28:46;;;;;;;;;;;17.70;83.00;;;;;;4944402;29;20374;-80
2023/06/30 02:31:12;;;;;;;;;;;17.60;83.20;;;;;;4949941;29;20005;-80
2023/06/30 02:33:38;;;;;;;;;;;17.70;83.00;;;;;;4944767;28;19926;-79
2023/06/30 02:36:04;;;;;;;;;;;17.70;82.10;;;;;;4947633;29;19910;-78
2023/06/30 02:38:30;;;;;;;;;;;17.60;83.10;;;;;;4948634;28;20055;-80
2023/06/30 02:40:56;;;;;;;;;;;17.60;83.00;;;;;;4941956;29;19930;-78
2023/06/30 02:43:21;;;;;;;;;;;17.60;83.40;;;;;;4933479;29;19922;-79
2023/06/30 02:45:47;;;;;;;;;;;17.60;84.10;;;;;;4950587;29;19964;-80
2023/06/30 02:48:12;;;;;;;;;;;17.70;83.80;;;;;;4946542;29;19915;-81
2023/06/30 02:50:38;;;;;;;;;;;17.70;83.90;;;;;;4941776;28;19997;-79
2023/06/30 02:53:03;;;;;;;;;;;17.70;83.60;;;;;;4948691;28;19925;-80
2023/06/30 02:55:29;;;;;;;;;;;17.80;82.90;;;;;;4963067;28;19915;-79
2023/06/30 02:57:54;;;;;;;;;;;17.90;82.10;;;;;;4940195;28;19914;-80
2023/06/30 03:00:20;;;;;;;;;;;17.80;82.50;;;;;;4937824;28;20325;-79
2023/06/30 03:02:45;;;;;;;;;;;17.60;83.30;;;;;;4963597;28;20063;-78
2023/06/30 03:05:11;;;;;;;;;;;17.50;83.10;;;;;;4964788;28;20429;-79
2023/06/30 03:07:36;;;;;;;;;;;17.50;83.00;;;;;;4964877;28;19915;-78
2023/06/30 03:10:02;;;;;;;;;;;17.40;84.10;;;;;;4951948;28;19944;-78
2023/06/30 03:12:28;;;;;;;;;;;17.50;84.20;;;;;;4947302;28;19922;-78
2023/06/30 03:14:53;;;;;;;;;;;17.40;84.60;;;;;;4948795;28;20266;-79
2023/06/30 03:17:19;;;;;;;;;;;17.50;85.10;;;;;;4968227;28;20358;-80
2023/06/30 03:19:44;;;;;;;;;;;17.40;84.40;;;;;;4948764;28;20359;-81
2023/06/30 03:22:10;;;;;;;;;;;17.50;84.50;;;;;;4976416;23;19915;-85
2023/06/30 03:24:35;;;;;;;;;;;17.20;84.10;;;;;;4980380;28;20029;-86
2023/06/30 03:27:01;;;;;;;;;;;17.20;83.90;;;;;;4995560;28;19909;-86
2023/06/30 03:29:27;;;;;;;;;;;17.10;83.80;;;;;;5023776;28;19916;-86
2023/06/30 03:31:52;;;;;;;;;;;17.10;84.40;;;;;;4993524;28;19926;-86
2023/06/30 03:34:18;;;;;;;;;;;17.00;84.60;;;;;;5014875;28;19914;-86
2023/06/30 03:36:43;;;;;;;;;;;17.10;84.20;;;;;;4976808;28;20025;-86
2023/06/30 03:39:09;;;;;;;;;;;17.10;83.40;;;;;;4975974;28;19966;-86
2023/06/30 03:41:34;;;;;;;;;;;17.00;84.40;;;;;;4979925;28;19910;-86
2023/06/30 03:44:00;;;;;;;;;;;17.10;84.30;;;;;;4986863;28;20380;-85
2023/06/30 03:46:25;;;;;;;;;;;17.10;84.40;;;;;;4976293;28;19953;-86
2023/06/30 03:48:50;;;;;;;;;;;17.00;84.40;;;;;;4976167;28;19921;-86
2023/06/30 03:51:16;;;;;;;;;;;17.00;84.40;;;;;;4975804;28;19921;-86
2023/06/30 03:53:47;;;;;;;;;;;17.10;84.40;;;;;;4969884;28;20323;-86
2023/06/30 03:56:15;;;;;;;;;;;17.10;84.00;;;;;;4966193;28;20295;-86
2023/06/30 03:59:13;;;;;;;;;;;17.10;84.00;;;;;;4985252;28;20442;-86
2023/06/30 04:01:39;;;;;;;;;;;17.00;83.40;;;;;;4977549;28;19921;-86
2023/06/30 04:04:05;;;;;;;;;;;17.00;83.50;;;;;;4977646;28;19971;-85
2023/06/30 04:06:33;;;;;;;;;;;16.90;83.50;;;;;;4966945;28;19918;-86
2023/06/30 04:08:59;;;;;;;;;;;16.90;83.60;;;;;;4992652;28;19953;-86
2023/06/30 04:11:24;;;;;;;;;;;16.80;84.30;;;;;;5008492;28;19956;-86
2023/06/30 04:13:49;;;;;;;;;;;16.80;84.20;;;;;;4969203;28;20308;-86
2023/06/30 04:16:17;;;;;;;;;;;16.90;83.90;;;;;;4977473;28;19967;-86
2023/06/30 04:18:43;;;;;;;;;;;16.80;84.00;;;;;;4968783;28;19922;-86
2023/06/30 04:21:08;;;;;;;;;;;16.80;84.40;;;;;;4980314;28;19910;-86
2023/06/30 04:23:33;;;;;;;;;;;16.90;83.70;;;;;;4983237;28;19918;-85
2023/06/30 04:26:00;;;;;;;;;;;17.00;83.90;;;;;;4991850;28;20384;-85
2023/06/30 04:28:26;;;;;;;;;;;17.00;83.70;;;;;;4974352;28;19925;-86
2023/06/30 04:30:51;;;;;;;;;;;17.00;83.00;;;;;;4980501;28;19914;-85
2023/06/30 04:33:17;;;;;;;;;;;16.90;83.60;;;;;;4971839;28;20296;-86
2023/06/30 04:35:43;;;;;;;;;;;16.90;83.20;;;;;;4969770;28;19914;-86
2023/06/30 04:38:09;;;;;;;;;;;17.00;82.70;;;;;;4966774;28;20013;-86
2023/06/30 04:40:35;;;;;;;;;;;17.00;83.20;;;;;;4974143;28;20011;-86
2023/06/30 04:43:01;;;;;;;;;;;17.00;83.10;;;;;;4987153;28;19914;-87
2023/06/30 04:45:26;;;;;;;;;;;17.00;83.40;;;;;;4988604;28;19924;-86
2023/06/30 04:47:52;;;;;;;;;;;17.00;83.40;;;;;;4980235;28;19926;-85
2023/06/30 04:50:17;;;;;;;;;;;16.80;84.10;;;;;;4980220;28;20009;-85
2023/06/30 04:52:43;;;;;;;;;;;16.90;84.30;;;;;;4973530;28;19913;-86
2023/06/30 04:55:08;;;;;;;;;;;16.90;84.30;;;;;;4971313;28;19983;-86
2023/06/30 04:57:34;;;;;;;;;;;17.00;83.60;;;;;;4974463;28;19914;-86
2023/06/30 04:59:59;;;;;;;;;;;17.00;84.00;;;;;;4968632;28;20334;-85
2023/06/30 05:02:25;;;;;;;;;;;17.10;84.20;;;;;;4973526;28;19930;-86
2023/06/30 05:04:51;;;;;;;;;;;17.10;82.80;;;;;;4968863;28;19914;-86
2023/06/30 05:07:24;;;;;;;;;;;17.10;82.00;;;;;;4967506;28;19914;-86
2023/06/30 05:09:49;;;;;;;;;;;17.10;83.10;;;;;;4973161;28;20384;-86
2023/06/30 05:12:15;;;;;;;;;;;17.20;82.10;;;;;;4977534;28;19929;-86
2023/06/30 05:14:40;;;;;;;;;;;17.20;82.20;;;;;;4981851;28;20466;-88
2023/06/30 05:17:06;;;;;;;;;;;17.10;81.90;;;;;;4971268;28;19914;-86
2023/06/30 05:19:31;;;;;;;;;;;17.20;82.30;;;;;;4976079;28;20391;-85
2023/06/30 05:21:57;;;;;;;;;;;17.30;81.90;;;;;;4969478;28;19921;-86
2023/06/30 05:24:22;;;;;;;;;;;17.30;81.80;;;;;;4975843;28;19929;-85
2023/06/30 05:26:48;;;;;;;;;;;17.20;81.00;;;;;;4975061;28;20011;-86
2023/06/30 05:29:13;;;;;;;;;;;17.10;81.50;;;;;;4971840;28;20108;-86
2023/06/30 05:31:39;;;;;;;;;;;17.10;81.30;;;;;;4964085;28;19933;-86
2023/06/30 05:34:04;;;;;;;;;;;17.00;81.60;;;;;;4967318;28;20449;-87
2023/06/30 05:36:30;;;;;;;;;;;17.00;80.00;;;;;;4974671;28;19913;-86
2023/06/30 05:38:56;;;;;;;;;;;17.00;81.00;;;;;;4979728;28;19953;-87
2023/06/30 05:41:21;;;;;;;;;;;17.00;80.00;;;;;;4981951;28;20387;-86
2023/06/30 05:43:47;;;;;;;;;;;17.00;80.80;;;;;;4976937;28;19921;-86
2023/06/30 05:46:12;;;;;;;;;;;16.90;81.10;;;;;;4966540;28;20406;-88
2023/06/30 05:48:38;;;;;;;;;;;16.90;81.20;;;;;;4977407;28;19902;-86
2023/06/30 05:51:03;;;;;;;;;;;17.10;81.10;;;;;;4999136;28;19914;-85
2023/06/30 05:53:28;;;;;;;;;;;17.10;80.40;;;;;;4981768;28;20134;-85
2023/06/30 05:55:55;;;;;;;;;;;17.10;80.80;;;;;;4977982;28;19937;-86
2023/06/30 05:58:23;;;;;;;;;;;17.20;79.30;;;;;;4968382;28;19925;-88
2023/06/30 06:00:48;;;;;;;;;;;17.20;78.10;;;;;;4974685;28;19914;-85
2023/06/30 06:03:14;;;;;;;;;;;17.10;79.10;;;;;;4980446;28;19985;-87
2023/06/30 06:05:40;;;;;;;;;;;17.10;79.30;;;;;;4996707;28;19914;-87
2023/06/30 06:08:05;;;;;;;;;;;17.10;79.90;;;;;;4967166;28;20275;-86
2023/06/30 06:10:30;;;;;;;;;;;17.30;78.90;;;;;;4977519;28;19910;-85
2023/06/30 06:12:56;;;;;;;;;;;17.50;77.80;;;;;;4964934;28;19918;-85
2023/06/30 06:15:21;;;;;;;;;;;17.40;77.90;;;;;;4971963;28;19918;-84
2023/06/30 06:17:47;;;;;;;;;;;17.40;77.60;;;;;;4969841;28;20020;-85
2023/06/30 06:20:12;;;;;;;;;;;17.30;77.70;;;;;;4964054;28;19918;-85
2023/06/30 06:22:38;;;;;;;;;;;17.40;77.40;;;;;;4972273;28;19918;-85
2023/06/30 06:25:03;;;;;;;;;;;17.40;77.60;;;;;;4970415;28;20001;-84
2023/06/30 06:27:32;;;;;;;;;;;17.50;77.00;;;;;;4993206;28;20392;-85
2023/06/30 06:29:58;;;;;;;;;;;17.40;76.40;;;;;;4961163;28;19943;-84
2023/06/30 06:32:23;;;;;;;;;;;17.30;77.70;;;;;;4962766;28;19969;-84
2023/06/30 06:34:48;;;;;;;;;;;17.40;75.80;;;;;;4958472;28;19969;-85
2023/06/30 06:37:15;;;;;;;;;;;17.40;76.10;;;;;;4964992;28;19918;-84
2023/06/30 06:39:40;;;;;;;;;;;17.30;76.70;;;;;;4959520;28;20255;-84
2023/06/30 06:42:06;;;;;;;;;;;17.30;76.10;;;;;;4961661;28;20048;-85
2023/06/30 06:44:31;;;;;;;;;;;17.30;76.00;;;;;;4962048;28;20425;-86
2023/06/30 06:47:15;;;;;;;;;;;17.30;76.30;;;;;;4960884;28;19966;-84
2023/06/30 06:49:41;;;;;;;;;;;17.30;75.30;;;;;;4962328;28;19918;-86
2023/06/30 06:52:06;;;;;;;;;;;17.30;75.40;;;;;;4964050;28;19914;-85
2023/06/30 06:54:32;;;;;;;;;;;17.30;75.30;;;;;;4957866;28;20273;-85
2023/06/30 06:56:57;;;;;;;;;;;17.30;74.80;;;;;;4962946;28;19959;-84
2023/06/30 06:59:23;;;;;;;;;;;17.20;75.50;;;;;;4971075;28;19922;-85
2023/06/30 07:01:48;;;;;;;;;;;17.20;76.20;;;;;;4960286;28;20267;-84
2023/06/30 07:04:14;;;;;;;;;;;17.40;74.50;;;;;;4961692;28;20017;-83
2023/06/30 07:06:39;;;;;;;;;;;17.50;74.60;;;;;;4964232;28;19960;-85
2023/06/30 07:09:05;;;;;;;;;;;17.40;74.40;;;;;;5010518;28;20397;-84
2023/06/30 07:11:31;;;;;;;;;;;17.50;74.80;;;;;;4991718;28;19949;-85
2023/06/30 07:13:56;;;;;;;;;;;17.40;75.90;;;;;;4977082;28;19914;-84
2023/06/30 07:16:22;;;;;;;;;;;17.60;74.50;;;;;;4966809;28;19918;-83
2023/06/30 07:18:47;;;;;;;;;;;17.60;73.70;;;;;;4973101;28;19921;-84
2023/06/30 07:21:13;;;;;;;;;;;17.80;72.70;;;;;;4978201;28;19922;-83
2023/06/30 07:23:38;;;;;;;;;;;17.80;71.70;;;;;;4977074;28;19977;-85
2023/06/30 07:26:04;;;;;;;;;;;17.60;72.90;;;;;;4989101;28;19914;-83
2023/06/30 07:28:31;;;;;;;;;;;17.50;73.40;;;;;;5019654;28;19957;-81
2023/06/30 07:30:56;;;;;;;;;;;17.40;72.40;;;;;;5000856;28;19918;-83
2023/06/30 07:33:22;;;;;;;;;;;17.60;71.60;;;;;;4978493;28;19920;-83
2023/06/30 07:35:47;;;;;;;;;;;17.60;72.00;;;;;;5024033;28;19912;-80
2023/06/30 07:38:12;;;;;;;;;;;17.60;73.30;;;;;;4965719;28;20334;-79
2023/06/30 07:40:38;;;;;;;;;;;17.60;72.40;;;;;;4964646;28;19918;-80
2023/06/30 07:43:03;;;;;;;;;;;17.70;66.60;;;;;;4969579;28;19918;-80
2023/06/30 07:45:29;;;;;;;;;;;17.60;67.80;;;;;;5010115;28;19944;-82
2023/06/30 07:47:54;;;;;;;;;;;17.60;67.70;;;;;;4979316;28;19914;-81
2023/06/30 07:50:20;;;;;;;;;;;17.50;68.80;;;;;;4966211;28;19914;-86
2023/06/30 07:52:47;;;;;;;;;;;17.70;67.50;;;;;;4969758;28;19918;-82
2023/06/30 07:55:12;;;;;;;;;;;17.70;67.50;;;;;;4965456;28;20334;-86
2023/06/30 07:57:38;;;;;;;;;;;17.80;67.20;;;;;;4966910;28;19914;-84
2023/06/30 08:00:05;;;;;;;;;;;17.80;65.30;;;;;;4965609;28;20410;-85
2023/06/30 08:02:30;;;;;;;;;;;17.80;65.90;;;;;;4963070;28;19962;-85
2023/06/30 08:04:56;;;;;;;;;;;17.80;64.60;;;;;;4967242;28;19954;-86
2023/06/30 08:07:21;;;;;;;;;;;17.90;65.10;;;;;;4966908;28;19918;-84
2023/06/30 08:09:47;;;;;;;;;;;17.80;66.00;;;;;;4965988;28;19914;-84
2023/06/30 08:12:12;;;;;;;;;;;17.80;66.20;;;;;;4969434;28;19914;-85
2023/06/30 08:14:38;;;;;;;;;;;17.90;65.00;;;;;;4969425;28;19914;-83
2023/06/30 08:17:03;;;;;;;;;;;18.00;64.80;;;;;;4973811;28;19914;-83
2023/06/30 08:19:29;;;;;;;;;;;18.10;62.70;;;;;;4969171;28;19923;-84
2023/06/30 08:21:54;;;;;;;;;;;18.10;63.20;;;;;;4969628;28;19914;-83
2023/06/30 08:24:20;;;;;;;;;;;18.20;64.00;;;;;;4969461;28;19918;-83
2023/06/30 08:26:45;;;;;;;;;;;18.20;63.90;;;;;;4975071;28;19929;-83
2023/06/30 08:29:11;;;;;;;;;;;18.30;64.50;;;;;;4992500;28;19914;-84
2023/06/30 08:31:36;;;;;;;;;;;18.40;63.50;;;;;;4981206;28;19910;-84
2023/06/30 08:34:02;;;;;;;;;;;18.30;62.00;;;;;;4973162;28;19958;-84
2023/06/30 08:36:27;;;;;;;;;;;18.30;61.70;;;;;;4991335;28;19913;-83
2023/06/30 08:38:53;;;;;;;;;;;18.20;62.20;;;;;;4978489;28;20489;-84
2023/06/30 08:41:18;;;;;;;;;;;18.10;61.60;;;;;;4973969;28;19940;-82
2023/06/30 08:43:44;;;;;;;;;;;18.30;61.40;;;;;;4977185;28;20048;-82
2023/06/30 08:46:10;;;;;;;;;;;18.30;62.80;;;;;;4976157;28;20429;-82
2023/06/30 08:48:36;;;;;;;;;;;18.50;61.00;;;;;;4974264;28;19915;-83
2023/06/30 08:51:02;;;;;;;;;;;18.60;60.90;;;;;;4974781;28;19957;-83
2023/06/30 08:53:28;;;;;;;;;;;18.50;59.00;;;;;;4972225;28;19914;-84
2023/06/30 08:55:56;;;;;;;;;;;18.50;60.20;;;;;;4969978;28;19917;-84
2023/06/30 08:58:22;;;;;;;;;;;18.40;58.30;;;;;;4971312;28;20442;-83
2023/06/30 09:00:47;;;;;;;;;;;18.40;59.90;;;;;;4970924;28;19954;-82
2023/06/30 09:03:13;;;;;;;;;;;18.40;59.40;;;;;;4971668;28;20413;-83
2023/06/30 09:05:39;;;;;;;;;;;18.50;57.20;;;;;;4937039;28;19910;-81
2023/06/30 09:08:09;;;;;;;;;;;18.60;57.10;;;;;;4944351;28;19911;-82
2023/06/30 09:10:37;;;;;;;;;;;18.60;56.30;;;;;;4990329;28;19910;-83
2023/06/30 09:13:03;;;;;;;;;;;18.80;56.30;;;;;;4975043;28;19914;-81
2023/06/30 09:15:30;;;;;;;;;;;18.80;57.60;;;;;;4966191;28;21543;-81
2023/06/30 09:17:55;;;;;;;;;;;18.80;57.80;;;;;;4978795;28;19914;-82
2023/06/30 09:20:21;;;;;;;;;;;19.00;56.10;;;;;;4984096;28;19941;-84
2023/06/30 09:22:46;;;;;;;;;;;18.90;57.00;;;;;;5012213;22;19916;-82
2023/06/30 09:25:24;;;;;;;;;;;19.10;55.70;;;;;;5069510;28;19916;-81
2023/06/30 09:27:50;;;;;;;;;;;19.20;56.60;;;;;;5090786;28;19912;-82
2023/06/30 09:30:15;;;;;;;;;;;19.30;56.30;;;;;;5088226;28;19927;-82
2023/06/30 09:32:41;;;;;;;;;;;19.30;56.00;;;;;;5094121;28;19915;-81
2023/06/30 09:35:07;;;;;;;;;;;19.40;57.30;;;;;;5078277;28;19912;-81
2023/06/30 09:37:42;;;;;;;;;;;19.50;56.90;;;;;;5095447;28;20401;-81
2023/06/30 09:40:12;;;;;;;;;;;19.50;56.60;;;;;;5074666;28;19951;-80
2023/06/30 09:42:37;;;;;;;;;;;19.60;55.00;;;;;;5072839;28;19950;-82
2023/06/30 09:45:03;;;;;;;;;;;19.50;55.90;;;;;;5072125;28;19913;-80
2023/06/30 09:47:28;;;;;;;;;;;19.30;56.10;;;;;;5075337;28;19916;-80
2023/06/30 09:49:54;;;;;;;;;;;19.10;55.80;;;;;;5073559;28;19958;-80
2023/06/30 09:52:24;;;;;;;;;;;19.20;56.50;;;;;;5075422;28;20280;-81
2023/06/30 09:54:49;;;;;;;;;;;19.30;56.70;;;;;;5069069;28;20865;-81
2023/06/30 09:57:15;;;;;;;;;;;19.60;54.90;;;;;;5090659;28;19920;-81
2023/06/30 09:59:41;;;;;;;;;;;19.60;54.50;;;;;;5075432;28;20003;-82
2023/06/30 10:02:06;;;;;;;;;;;19.70;53.90;;;;;;5073119;28;19912;-81
2023/06/30 10:04:31;;;;;;;;;;;19.60;54.90;;;;;;5071778;28;19916;-80
2023/06/30 10:06:57;;;;;;;;;;;19.60;54.70;;;;;;5072825;28;19908;-81
2023/06/30 10:09:24;;;;;;;;;;;19.60;55.00;;;;;;5091586;28;20435;-80
2023/06/30 10:11:51;;;;;;;;;;;19.60;56.20;;;;;;5071099;28;19916;-81
2023/06/30 10:14:19;;;;;;;;;;;19.50;52.10;;;;;;5072542;28;19938;-82
2023/06/30 10:16:46;;;;;;;;;;;19.60;54.00;;;;;;5070377;28;19916;-81
2023/06/30 10:19:12;;;;;;;;;;;19.70;52.40;;;;;;5094220;28;19955;-80
2023/06/30 10:21:37;;;;;;;;;;;19.80;53.30;;;;;;5073742;28;19912;-81
2023/06/30 10:24:03;;;;;;;;;;;20.00;53.00;;;;;;5068754;28;19923;-82
2023/06/30 10:26:31;;;;;;;;;;;20.00;52.90;;;;;;5081765;28;19912;-83
2023/06/30 10:28:56;;;;;;;;;;;20.00;52.20;;;;;;5073358;28;19919;-81
2023/06/30 10:31:22;;;;;;;;;;;20.00;52.60;;;;;;5079625;28;19919;-82
2023/06/30 10:33:48;;;;;;;;;;;20.00;52.90;;;;;;5076029;28;19924;-83
2023/06/30 10:36:15;;;;;;;;;;;20.00;51.60;;;;;;5094001;28;19912;-81
2023/06/30 10:38:43;;;;;;;;;;;20.10;52.40;;;;;;5093370;28;19965;-81
2023/06/30 10:41:17;;;;;;;;;;;20.10;52.60;;;;;;5072166;28;19912;-81
2023/06/30 10:44:01;;;;;;;;;;;20.10;53.10;;;;;;5074061;28;20471;-82
2023/06/30 10:46:40;;;;;;;;;;;20.10;53.20;;;;;;5076480;28;19927;-83
2023/06/30 10:49:05;;;;;;;;;;;20.20;53.30;;;;;;5090658;28;20371;-80
2023/06/30 10:51:35;;;;;;;;;;;20.40;50.50;;;;;;5073739;28;19912;-80
2023/06/30 10:54:00;;;;;;;;;;;20.40;49.40;;;;;;5090736;28;19916;-81
2023/06/30 10:56:27;;;;;;;;;;;20.40;49.60;;;;;;5076825;28;19992;-79
2023/06/30 10:58:55;;;;;;;;;;;20.50;50.60;;;;;;5090256;28;19912;-81
2023/06/30 11:01:20;;;;;;;;;;;20.40;50.60;;;;;;5080543;28;19995;-80
2023/06/30 11:03:55;;;;;;;;;;;20.40;50.50;;;;;;5072308;28;19969;-80
2023/06/30 11:06:21;;;;;;;;;;;20.40;52.20;;;;;;5082417;28;20399;-79
2023/06/30 11:09:03;;;;;;;;;;;20.30;51.10;;;;;;5073977;28;19942;-81
2023/06/30 11:11:28;;;;;;;;;;;20.40;49.90;;;;;;5061437;28;20346;-80
2023/06/30 11:14:03;;;;;;;;;;;20.60;49.00;;;;;;5069758;28;20028;-79
2023/06/30 11:16:29;;;;;;;;;;;20.70;48.90;;;;;;5066880;28;19923;-80
2023/06/30 11:18:58;;;;;;;;;;;20.90;48.20;;;;;;5090591;28;19912;-79
2023/06/30 11:21:23;;;;;;;;;;;21.00;48.60;;;;;;5079229;28;19920;-79
2023/06/30 11:23:49;;;;;;;;;;;21.00;46.90;;;;;;5091642;28;19927;-80
2023/06/30 11:26:16;;;;;;;;;;;20.90;47.30;;;;;;5074871;28;21402;-79
2023/06/30 11:28:42;;;;;;;;;;;21.00;49.10;;;;;;5076538;28;20354;-79
2023/06/30 11:31:07;;;;;;;;;;;20.90;48.80;;;;;;5095686;28;19939;-82
2023/06/30 11:33:39;;;;;;;;;;;21.10;47.70;;;;;;5090257;28;19935;-88
2023/06/30 11:36:11;;;;;;;;;;;21.10;47.60;;;;;;5073554;28;19999;-81
2023/06/30 11:38:46;;;;;;;;;;;21.00;48.90;;;;;;5067617;28;19977;-86
2023/06/30 11:41:11;;;;;;;;;;;21.10;48.50;;;;;;5095816;28;19907;-84
2023/06/30 11:43:37;;;;;;;;;;;21.40;47.50;;;;;;5089839;28;19920;-81
2023/06/30 11:46:02;;;;;;;;;;;21.60;48.00;;;;;;5099537;28;19909;-84
2023/06/30 11:48:38;;;;;;;;;;;21.60;48.20;;;;;;5079284;28;19973;-82
2023/06/30 11:51:04;;;;;;;;;;;21.80;47.50;;;;;;5091696;28;19923;-85
2023/06/30 11:53:32;;;;;;;;;;;21.80;47.50;;;;;;5078091;28;19912;-84
2023/06/30 11:55:58;;;;;;;;;;;21.80;47.90;;;;;;5077308;28;20056;-83
2023/06/30 11:58:23;;;;;;;;;;;21.90;46.40;;;;;;5076559;28;20435;-84
2023/06/30 12:00:49;;;;;;;;;;;21.60;47.00;;;;;;5079173;28;20375;-82
2023/06/30 12:03:18;;;;;;;;;;;21.50;46.80;;;;;;5077023;28;20379;-83
2023/06/30 12:05:54;;;;;;;;;;;21.60;46.90;;;;;;5088059;28;19920;-84
2023/06/30 12:08:20;;;;;;;;;;;21.50;46.40;;;;;;5076571;28;19926;-81
2023/06/30 12:10:47;;;;;;;;;;;21.50;46.20;;;;;;5091941;28;19920;-82
2023/06/30 12:13:12;;;;;;;;;;;21.50;48.00;;;;;;5067050;28;20016;-81
2023/06/30 12:15:38;;;;;;;;;;;21.60;47.60;;;;;;5073372;28;21545;-81
2023/06/30 12:18:04;;;;;;;;;;;21.50;47.80;;;;;;5086289;28;20348;-81
2023/06/30 12:20:31;;;;;;;;;;;21.50;48.00;;;;;;5072838;28;19958;-82
2023/06/30 12:22:57;;;;;;;;;;;21.50;48.60;;;;;;5068822;28;19924;-82
2023/06/30 12:25:26;;;;;;;;;;;21.60;47.50;;;;;;5074979;28;19915;-82
2023/06/30 12:27:52;;;;;;;;;;;21.60;46.90;;;;;;5076246;28;19916;-82
2023/06/30 12:30:19;;;;;;;;;;;21.80;46.40;;;;;;5075908;28;19961;-83
2023/06/30 12:32:45;;;;;;;;;;;22.00;47.50;;;;;;5074298;28;19976;-83
2023/06/30 12:35:10;;;;;;;;;;;21.90;46.50;;;;;;5087548;28;19909;-82
2023/06/30 12:37:36;;;;;;;;;;;21.60;47.30;;;;;;5093651;28;19908;-81
2023/06/30 12:40:03;;;;;;;;;;;21.30;48.30;;;;;;5076884;28;19908;-82
2023/06/30 12:42:31;;;;;;;;;;;21.10;48.70;;;;;;5075082;28;19912;-81
2023/06/30 12:44:57;;;;;;;;;;;20.80;49.70;;;;;;5075680;28;19912;-82
2023/06/30 12:47:22;;;;;;;;;;;20.60;49.30;;;;;;5076488;28;19915;-82
2023/06/30 12:49:49;;;;;;;;;;;20.60;50.90;;;;;;5095462;28;19965;-82
2023/06/30 12:52:15;;;;;;;;;;;20.70;52.20;;;;;;5076269;28;19929;-81
2023/06/30 12:54:41;;;;;;;;;;;20.70;50.90;;;;;;5075289;28;20579;-83
2023/06/30 12:57:07;;;;;;;;;;;20.90;49.60;;;;;;5076754;28;20015;-82
2023/06/30 12:59:33;;;;;;;;;;;21.00;50.60;;;;;;5076983;28;19918;-84
2023/06/30 13:02:10;;;;;;;;;;;21.00;50.10;;;;;;5066798;22;19916;-85
2023/06/30 13:04:36;;;;;;;;;;;20.80;50.40;;;;;;4969111;28;19962;-83
2023/06/30 13:07:22;;;;;;;;;;;20.90;49.80;;;;;;4969112;28;20377;-82
2023/06/30 13:10:19;;;;;;;;;;;20.90;49.50;;;;;;4970127;28;19918;-83
2023/06/30 13:12:45;;;;;;;;;;;21.10;48.60;;;;;;4982780;22;19930;-85
2023/06/30 13:15:12;;;;;;;;;;;21.10;48.30;;;;;;4970247;28;19910;-83
2023/06/30 13:17:38;;;;;;;;;;;21.10;47.10;;;;;;4948246;28;20335;-84
2023/06/30 13:20:04;;;;;;;;;;;21.00;48.50;;;;;;4949036;29;19950;-85
2023/06/30 13:22:30;;;;;;;;;;;21.10;47.60;;;;;;4949067;28;20377;-85
2023/06/30 13:25:07;;;;;;;;;;;21.00;47.20;;;;;;4948740;28;19911;-85
2023/06/30 13:27:33;;;;;;;;;;;21.20;47.00;;;;;;4949712;28;19911;-84
2023/06/30 13:29:58;;;;;;;;;;;21.40;48.00;;;;;;4947803;28;20296;-84
2023/06/30 13:32:24;;;;;;;;;;;21.70;47.80;;;;;;4936040;28;20051;-82
2023/06/30 13:34:49;;;;;;;;;;;21.80;46.40;;;;;;4952137;28;19922;-83
2023/06/30 13:37:15;;;;;;;;;;;22.00;45.80;;;;;;4954485;28;19915;-84
2023/06/30 13:39:40;;;;;;;;;;;22.10;46.20;;;;;;4950308;28;20044;-86
2023/06/30 13:42:07;;;;;;;;;;;22.40;46.80;;;;;;4949900;28;19915;-84
2023/06/30 13:44:36;;;;;;;;;;;22.50;46.60;;;;;;4947727;28;19941;-87
2023/06/30 13:47:02;;;;;;;;;;;22.60;45.20;;;;;;4949744;28;19914;-87
2023/06/30 13:49:28;;;;;;;;;;;22.60;45.50;;;;;;4949594;28;19917;-87
2023/06/30 13:51:56;;;;;;;;;;;22.50;45.20;;;;;;4948852;28;19915;-85
2023/06/30 13:54:23;;;;;;;;;;;22.50;45.10;;;;;;4947642;28;20017;-83
2023/06/30 13:56:48;;;;;;;;;;;22.10;45.60;;;;;;4956444;28;19926;-85
2023/06/30 13:59:14;;;;;;;;;;;22.10;46.30;;;;;;4947591;28;19915;-83
2023/06/30 14:01:40;;;;;;;;;;;22.10;45.70;;;;;;4960750;28;19925;-81
2023/06/30 14:04:06;;;;;;;;;;;22.00;46.80;;;;;;4963296;28;19918;-82
2023/06/30 14:06:33;;;;;;;;;;;22.10;46.50;;;;;;4969021;28;21453;-82
2023/06/30 14:08:59;;;;;;;;;;;22.10;46.50;;;;;;4946838;28;19983;-82
2023/06/30 14:11:25;;;;;;;;;;;22.00;47.30;;;;;;4943811;28;19917;-82
2023/06/30 14:13:50;;;;;;;;;;;21.80;47.90;;;;;;4952757;28;20372;-84